sensor_id;sensor_type;location;lat;lon;timestamp;temperature;humidity
7784;DHT22;19359;51.402;6.778;2024-02-28T00:01:29;0.70;99.90
7784;DHT22;19359;51.402;6.778;2024-02-28T00:03:56;0.60;99.90
7784;DHT22;19359;51.402;6.778;2024-02-28T00:06:23;0.60;99.90
7784;DHT22;19359;51.402;6.778;2024-02-28T00:08:50;0.50;99.90
7784;DHT22;19359;51.402;6.778;2024-02-28T00:11:19;0.50;99.90
7784;DHT22;19359;51.402;6.778;2024-02-28T00:13:46;0.40;99.90
7784;DHT22;19359;51.402;6.778;2024-02-28T00:16:13;0.50;99.90
7784;DHT22;19359;51.402;6.778;2024-02-28T00:18:41;0.50;99.90
7784;DHT22;19359;51.402;6.778;2024-02-28T00:21:08;0.50;99.90
7784;DHT22;19359;51.402;6.778;2024-02-28T00:23:35;0.60;99.90
7784;DHT22;19359;51.402;6.778;2024-02-28T00:26:02;0.60;99.90
7784;DHT22;19359;51.402;6.778;2024-02-28T00:28:28;0.50;99.90
7784;DHT22;19359;51.402;6.778;2024-02-28T00:30:55;0.50;99.90
7784;DHT22;19359;51.402;6.778;2024-02-28T00:33:22;0.50;99.90
7784;DHT22;19359;51.402;6.778;2024-02-28T00:35:50;0.50;99.90
7784;DHT22;19359;51.402;6.778;2024-02-28T00:38:19;0.40;99.90
7784;DHT22;19359;51.402;6.778;2024-02-28T00:40:45;0.40;99.90
7784;DHT22;19359;51.402;6.778;2024-02-28T00:43:12;0.40;99.90
7784;DHT22;19359;51.402;6.778;2024-02-28T00:45:39;0.30;99.90
7784;DHT22;19359;51.402;6.778;2024-02-28T00:48:06;0.30;99.90
7784;DHT22;19359;51.402;6.778;2024-02-28T00:50:33;0.30;99.90
7784;DHT22;19359;51.402;6.778;2024-02-28T00:53:01;0.30;99.90
7784;DHT22;19359;51.402;6.778;2024-02-28T00:55:28;0.30;99.90
7784;DHT22;19359;51.402;6.778;2024-02-28T00:57:55;0.30;99.90
7784;DHT22;19359;51.402;6.778;2024-02-28T01:00:22;0.30;1.00
7784;DHT22;19359;51.402;6.778;2024-02-28T01:02:48;0.30;1.00
7784;DHT22;19359;51.402;6.778;2024-02-28T01:05:15;0.30;1.00
7784;DHT22;19359;51.402;6.778;2024-02-28T01:07:42;0.20;1.00
7784;DHT22;19359;51.402;6.778;2024-02-28T01:10:10;0.20;1.00
7784;DHT22;19359;51.402;6.778;2024-02-28T01:12:37;0.20;1.00
7784;DHT22;19359;51.402;6.778;2024-02-28T01:15:04;0.30;1.00
7784;DHT22;19359;51.402;6.778;2024-02-28T01:17:31;0.40;1.00
7784;DHT22;19359;51.402;6.778;2024-02-28T01:19:58;0.40;1.00
7784;DHT22;19359;51.402;6.778;2024-02-28T01:22:25;0.40;1.00
7784;DHT22;19359;51.402;6.778;2024-02-28T01:24:51;0.30;1.00
7784;DHT22;19359;51.402;6.778;2024-02-28T01:27:19;0.30;1.00
7784;DHT22;19359;51.402;6.778;2024-02-28T01:29:46;0.30;1.00
7784;DHT22;19359;51.402;6.778;2024-02-28T01:32:13;0.30;1.00
7784;DHT22;19359;51.402;6.778;2024-02-28T01:34:40;0.40;1.00
7784;DHT22;19359;51.402;6.778;2024-02-28T01:37:06;0.50;1.00
7784;DHT22;19359;51.402;6.778;2024-02-28T01:39:33;0.50;1.00
7784;DHT22;19359;51.402;6.778;2024-02-28T01:42:00;0.50;1.00
7784;DHT22;19359;51.402;6.778;2024-02-28T01:44:28;0.60;1.00
7784;DHT22;19359;51.402;6.778;2024-02-28T01:46:55;0.50;1.00
7784;DHT22;19359;51.402;6.778;2024-02-28T01:49:22;0.50;1.00
7784;DHT22;19359;51.402;6.778;2024-02-28T01:51:50;0.60;1.00
7784;DHT22;19359;51.402;6.778;2024-02-28T01:54:20;0.60;1.00
7784;DHT22;19359;51.402;6.778;2024-02-28T01:56:47;0.70;1.00
7784;DHT22;19359;51.402;6.778;2024-02-28T01:59:14;0.70;1.00
7784;DHT22;19359;51.402;6.778;2024-02-28T02:01:42;0.80;1.00
7784;DHT22;19359;51.402;6.778;2024-02-28T02:04:09;0.80;1.00
7784;DHT22;19359;51.402;6.778;2024-02-28T02:06:38;0.90;1.00
7784;DHT22;19359;51.402;6.778;2024-02-28T02:09:08;1.00;1.00
7784;DHT22;19359;51.402;6.778;2024-02-28T02:11:35;1.10;1.00
7784;DHT22;19359;51.402;6.778;2024-02-28T02:14:02;1.10;1.00
7784;DHT22;19359;51.402;6.778;2024-02-28T02:16:29;1.10;1.00
7784;DHT22;19359;51.402;6.778;2024-02-28T02:18:57;1.10;1.00
7784;DHT22;19359;51.402;6.778;2024-02-28T02:21:26;1.10;1.00
7784;DHT22;19359;51.402;6.778;2024-02-28T02:23:57;1.20;1.00
7784;DHT22;19359;51.402;6.778;2024-02-28T02:28:51;1.30;1.00
7784;DHT22;19359;51.402;6.778;2024-02-28T02:31:18;1.30;1.00
7784;DHT22;19359;51.402;6.778;2024-02-28T02:33:45;1.40;1.00
7784;DHT22;19359;51.402;6.778;2024-02-28T02:36:12;1.30;1.00
7784;DHT22;19359;51.402;6.778;2024-02-28T02:38:38;1.30;1.00
7784;DHT22;19359;51.402;6.778;2024-02-28T02:41:06;1.30;1.00
7784;DHT22;19359;51.402;6.778;2024-02-28T02:43:33;1.30;1.00
7784;DHT22;19359;51.402;6.778;2024-02-28T02:46:00;1.30;79.30
7784;DHT22;19359;51.402;6.778;2024-02-28T02:48:27;1.30;99.90
7784;DHT22;19359;51.402;6.778;2024-02-28T02:50:53;1.30;1.00
7784;DHT22;19359;51.402;6.778;2024-02-28T02:53:20;1.30;99.90
7784;DHT22;19359;51.402;6.778;2024-02-28T02:55:47;1.30;1.00
7784;DHT22;19359;51.402;6.778;2024-02-28T02:58:15;1.40;1.00
7784;DHT22;19359;51.402;6.778;2024-02-28T03:00:42;1.50;1.00
7784;DHT22;19359;51.402;6.778;2024-02-28T03:03:08;1.50;1.00
7784;DHT22;19359;51.402;6.778;2024-02-28T03:05:35;1.50;1.00
7784;DHT22;19359;51.402;6.778;2024-02-28T03:08:02;1.60;1.00
7784;DHT22;19359;51.402;6.778;2024-02-28T03:10:29;1.60;1.00
7784;DHT22;19359;51.402;6.778;2024-02-28T03:12:56;1.60;1.00
7784;DHT22;19359;51.402;6.778;2024-02-28T03:15:24;1.70;1.00
7784;DHT22;19359;51.402;6.778;2024-02-28T03:17:51;1.70;1.00
7784;DHT22;19359;51.402;6.778;2024-02-28T03:20:17;1.70;1.00
7784;DHT22;19359;51.402;6.778;2024-02-28T03:25:11;1.80;1.00
7784;DHT22;19359;51.402;6.778;2024-02-28T03:27:38;1.90;70.60
7784;DHT22;19359;51.402;6.778;2024-02-28T03:30:06;1.90;99.90
7784;DHT22;19359;51.402;6.778;2024-02-28T03:32:34;1.90;99.90
7784;DHT22;19359;51.402;6.778;2024-02-28T03:35:01;1.90;1.00
7784;DHT22;19359;51.402;6.778;2024-02-28T03:37:28;1.90;1.00
7784;DHT22;19359;51.402;6.778;2024-02-28T03:39:54;2.20;1.00
7784;DHT22;19359;51.402;6.778;2024-02-28T03:42:21;2.10;1.00
7784;DHT22;19359;51.402;6.778;2024-02-28T03:44:48;2.00;1.00
7784;DHT22;19359;51.402;6.778;2024-02-28T03:47:15;2.10;1.00
7784;DHT22;19359;51.402;6.778;2024-02-28T03:49:43;2.10;1.00
7784;DHT22;19359;51.402;6.778;2024-02-28T03:52:10;2.20;39.10
7784;DHT22;19359;51.402;6.778;2024-02-28T03:54:36;2.10;99.90
7784;DHT22;19359;51.402;6.778;2024-02-28T03:57:03;2.10;99.90
7784;DHT22;19359;51.402;6.778;2024-02-28T03:59:30;2.20;99.90
7784;DHT22;19359;51.402;6.778;2024-02-28T04:01:57;2.20;99.90
7784;DHT22;19359;51.402;6.778;2024-02-28T04:04:24;2.20;1.00
7784;DHT22;19359;51.402;6.778;2024-02-28T04:06:52;2.30;1.00
7784;DHT22;19359;51.402;6.778;2024-02-28T04:09:18;2.30;1.00
7784;DHT22;19359;51.402;6.778;2024-02-28T04:11:46;2.30;1.00
7784;DHT22;19359;51.402;6.778;2024-02-28T04:14:13;2.30;1.00
7784;DHT22;19359;51.402;6.778;2024-02-28T04:16:41;2.30;1.00
7784;DHT22;19359;51.402;6.778;2024-02-28T04:19:09;2.40;1.00
7784;DHT22;19359;51.402;6.778;2024-02-28T04:21:36;2.40;1.00
7784;DHT22;19359;51.402;6.778;2024-02-28T04:24:05;2.40;68.70
7784;DHT22;19359;51.402;6.778;2024-02-28T04:26:32;2.40;99.90
7784;DHT22;19359;51.402;6.778;2024-02-28T04:28:59;2.40;99.90
7784;DHT22;19359;51.402;6.778;2024-02-28T04:31:28;2.40;99.90
7784;DHT22;19359;51.402;6.778;2024-02-28T04:33:55;2.50;1.00
7784;DHT22;19359;51.402;6.778;2024-02-28T04:36:21;2.50;1.00
7784;DHT22;19359;51.402;6.778;2024-02-28T04:38:48;2.50;1.00
7784;DHT22;19359;51.402;6.778;2024-02-28T04:41:16;2.60;1.00
7784;DHT22;19359;51.402;6.778;2024-02-28T04:43:43;2.50;1.00
7784;DHT22;19359;51.402;6.778;2024-02-28T04:46:10;2.50;1.00
7784;DHT22;19359;51.402;6.778;2024-02-28T04:48:36;2.30;1.00
7784;DHT22;19359;51.402;6.778;2024-02-28T04:51:03;2.50;1.00
7784;DHT22;19359;51.402;6.778;2024-02-28T04:53:30;2.60;1.00
7784;DHT22;19359;51.402;6.778;2024-02-28T04:55:57;2.30;1.00
7784;DHT22;19359;51.402;6.778;2024-02-28T04:58:25;2.50;1.00
7784;DHT22;19359;51.402;6.778;2024-02-28T05:00:52;2.40;1.00
7784;DHT22;19359;51.402;6.778;2024-02-28T05:03:18;2.40;1.00
7784;DHT22;19359;51.402;6.778;2024-02-28T05:05:46;2.40;57.70
7784;DHT22;19359;51.402;6.778;2024-02-28T05:08:13;2.30;99.90
7784;DHT22;19359;51.402;6.778;2024-02-28T05:10:39;2.40;99.90
7784;DHT22;19359;51.402;6.778;2024-02-28T05:13:06;2.50;99.90
7784;DHT22;19359;51.402;6.778;2024-02-28T05:15:34;2.50;99.90
7784;DHT22;19359;51.402;6.778;2024-02-28T05:18:01;2.60;99.90
7784;DHT22;19359;51.402;6.778;2024-02-28T05:20:28;2.60;99.90
7784;DHT22;19359;51.402;6.778;2024-02-28T05:22:55;2.50;99.90
7784;DHT22;19359;51.402;6.778;2024-02-28T05:25:22;3.10;1.00
7784;DHT22;19359;51.402;6.778;2024-02-28T05:27:49;2.30;1.00
7784;DHT22;19359;51.402;6.778;2024-02-28T05:30:16;2.40;1.00
7784;DHT22;19359;51.402;6.778;2024-02-28T05:32:44;2.60;1.00
7784;DHT22;19359;51.402;6.778;2024-02-28T05:35:11;2.60;1.00
7784;DHT22;19359;51.402;6.778;2024-02-28T05:37:40;2.60;1.00
7784;DHT22;19359;51.402;6.778;2024-02-28T05:40:07;2.60;1.00
7784;DHT22;19359;51.402;6.778;2024-02-28T05:42:34;2.70;1.00
7784;DHT22;19359;51.402;6.778;2024-02-28T05:45:01;2.60;1.00
7784;DHT22;19359;51.402;6.778;2024-02-28T05:47:28;2.70;1.00
7784;DHT22;19359;51.402;6.778;2024-02-28T05:49:56;2.60;1.00
7784;DHT22;19359;51.402;6.778;2024-02-28T05:52:24;2.70;1.00
7784;DHT22;19359;51.402;6.778;2024-02-28T05:54:51;2.70;1.00
7784;DHT22;19359;51.402;6.778;2024-02-28T05:57:18;2.80;1.00
7784;DHT22;19359;51.402;6.778;2024-02-28T05:59:44;2.80;1.00
7784;DHT22;19359;51.402;6.778;2024-02-28T06:02:11;2.80;1.00
7784;DHT22;19359;51.402;6.778;2024-02-28T06:04:38;2.80;1.00
7784;DHT22;19359;51.402;6.778;2024-02-28T06:07:06;2.80;1.00
7784;DHT22;19359;51.402;6.778;2024-02-28T06:09:33;3.20;1.00
7784;DHT22;19359;51.402;6.778;2024-02-28T06:12:00;2.80;1.00
7784;DHT22;19359;51.402;6.778;2024-02-28T06:14:28;2.60;1.00
7784;DHT22;19359;51.402;6.778;2024-02-28T06:16:54;2.70;1.00
7784;DHT22;19359;51.402;6.778;2024-02-28T06:19:21;2.60;1.00
7784;DHT22;19359;51.402;6.778;2024-02-28T06:21:48;2.60;1.00
7784;DHT22;19359;51.402;6.778;2024-02-28T06:24:16;2.50;1.00
7784;DHT22;19359;51.402;6.778;2024-02-28T06:26:43;2.40;1.00
7784;DHT22;19359;51.402;6.778;2024-02-28T06:29:10;2.40;1.00
7784;DHT22;19359;51.402;6.778;2024-02-28T06:31:37;2.40;1.00
7784;DHT22;19359;51.402;6.778;2024-02-28T06:34:04;2.40;1.00
7784;DHT22;19359;51.402;6.778;2024-02-28T06:36:31;2.50;1.00
7784;DHT22;19359;51.402;6.778;2024-02-28T06:38:58;2.50;1.00
7784;DHT22;19359;51.402;6.778;2024-02-28T06:41:26;2.50;1.00
7784;DHT22;19359;51.402;6.778;2024-02-28T06:43:53;2.50;1.00
7784;DHT22;19359;51.402;6.778;2024-02-28T06:46:20;2.50;1.00
7784;DHT22;19359;51.402;6.778;2024-02-28T06:48:46;2.50;1.00
7784;DHT22;19359;51.402;6.778;2024-02-28T06:51:16;2.60;1.00
7784;DHT22;19359;51.402;6.778;2024-02-28T06:53:43;2.70;1.00
7784;DHT22;19359;51.402;6.778;2024-02-28T06:56:10;2.70;1.00
7784;DHT22;19359;51.402;6.778;2024-02-28T06:58:38;2.50;1.00
7784;DHT22;19359;51.402;6.778;2024-02-28T07:01:05;2.70;1.00
7784;DHT22;19359;51.402;6.778;2024-02-28T07:03:31;2.90;1.00
7784;DHT22;19359;51.402;6.778;2024-02-28T07:05:58;2.90;1.00
7784;DHT22;19359;51.402;6.778;2024-02-28T07:08:25;2.80;1.00
7784;DHT22;19359;51.402;6.778;2024-02-28T07:10:52;2.80;1.00
7784;DHT22;19359;51.402;6.778;2024-02-28T07:13:19;2.90;42.00
7784;DHT22;19359;51.402;6.778;2024-02-28T07:15:48;3.50;73.80
7784;DHT22;19359;51.402;6.778;2024-02-28T07:18:15;3.00;71.90
7784;DHT22;19359;51.402;6.778;2024-02-28T07:20:42;3.10;82.30
7784;DHT22;19359;51.402;6.778;2024-02-28T07:23:09;3.50;99.90
7784;DHT22;19359;51.402;6.778;2024-02-28T07:25:36;3.30;99.90
7784;DHT22;19359;51.402;6.778;2024-02-28T07:28:03;3.20;99.90
7784;DHT22;19359;51.402;6.778;2024-02-28T07:30:30;3.10;99.90
7784;DHT22;19359;51.402;6.778;2024-02-28T07:32:58;3.30;99.90
7784;DHT22;19359;51.402;6.778;2024-02-28T07:35:25;3.40;95.50
7784;DHT22;19359;51.402;6.778;2024-02-28T07:37:52;3.30;94.30
7784;DHT22;19359;51.402;6.778;2024-02-28T07:40:19;3.40;1.00
7784;DHT22;19359;51.402;6.778;2024-02-28T07:42:45;3.40;1.00
7784;DHT22;19359;51.402;6.778;2024-02-28T07:45:12;3.40;1.00
7784;DHT22;19359;51.402;6.778;2024-02-28T07:47:39;3.40;1.00
7784;DHT22;19359;51.402;6.778;2024-02-28T07:50:08;3.50;1.00
7784;DHT22;19359;51.402;6.778;2024-02-28T07:52:35;3.50;1.00
7784;DHT22;19359;51.402;6.778;2024-02-28T07:55:03;3.40;1.00
7784;DHT22;19359;51.402;6.778;2024-02-28T07:57:31;3.50;1.00
7784;DHT22;19359;51.402;6.778;2024-02-28T07:59:58;3.60;1.00
7784;DHT22;19359;51.402;6.778;2024-02-28T08:02:25;3.60;1.00
7784;DHT22;19359;51.402;6.778;2024-02-28T08:04:52;3.60;1.00
7784;DHT22;19359;51.402;6.778;2024-02-28T08:07:20;3.70;1.00
7784;DHT22;19359;51.402;6.778;2024-02-28T08:09:46;3.80;99.90
7784;DHT22;19359;51.402;6.778;2024-02-28T08:12:13;3.70;99.90
7784;DHT22;19359;51.402;6.778;2024-02-28T08:14:40;3.70;1.00
7784;DHT22;19359;51.402;6.778;2024-02-28T08:17:07;3.70;1.00
7784;DHT22;19359;51.402;6.778;2024-02-28T08:19:33;3.50;1.00
7784;DHT22;19359;51.402;6.778;2024-02-28T08:22:01;3.90;1.00
7784;DHT22;19359;51.402;6.778;2024-02-28T08:24:29;3.60;1.00
7784;DHT22;19359;51.402;6.778;2024-02-28T08:26:56;3.80;1.00
7784;DHT22;19359;51.402;6.778;2024-02-28T08:29:22;3.80;1.00
7784;DHT22;19359;51.402;6.778;2024-02-28T08:31:49;3.70;1.00
7784;DHT22;19359;51.402;6.778;2024-02-28T08:34:16;3.80;99.90
7784;DHT22;19359;51.402;6.778;2024-02-28T08:36:43;3.50;99.90
7784;DHT22;19359;51.402;6.778;2024-02-28T08:39:10;3.40;99.90
7784;DHT22;19359;51.402;6.778;2024-02-28T08:41:38;3.70;99.90
7784;DHT22;19359;51.402;6.778;2024-02-28T08:44:05;3.80;99.90
7784;DHT22;19359;51.402;6.778;2024-02-28T08:46:31;3.70;99.90
7784;DHT22;19359;51.402;6.778;2024-02-28T08:48:58;3.80;99.90
7784;DHT22;19359;51.402;6.778;2024-02-28T08:51:25;3.50;99.90
7784;DHT22;19359;51.402;6.778;2024-02-28T08:53:52;3.70;99.90
7784;DHT22;19359;51.402;6.778;2024-02-28T08:56:20;3.70;99.90
7784;DHT22;19359;51.402;6.778;2024-02-28T08:58:49;3.80;99.90
7784;DHT22;19359;51.402;6.778;2024-02-28T09:01:15;3.90;99.90
7784;DHT22;19359;51.402;6.778;2024-02-28T09:03:42;3.80;99.90
7784;DHT22;19359;51.402;6.778;2024-02-28T09:06:09;4.10;8.40
7784;DHT22;19359;51.402;6.778;2024-02-28T09:08:36;4.00;6.20
7784;DHT22;19359;51.402;6.778;2024-02-28T09:11:03;4.00;1.00
7784;DHT22;19359;51.402;6.778;2024-02-28T09:13:30;4.30;1.00
7784;DHT22;19359;51.402;6.778;2024-02-28T09:15:58;4.20;1.00
7784;DHT22;19359;51.402;6.778;2024-02-28T09:18:25;4.40;1.00
7784;DHT22;19359;51.402;6.778;2024-02-28T09:20:52;4.50;1.00
7784;DHT22;19359;51.402;6.778;2024-02-28T09:23:19;4.70;1.00
7784;DHT22;19359;51.402;6.778;2024-02-28T09:25:46;4.80;1.00
7784;DHT22;19359;51.402;6.778;2024-02-28T09:28:13;4.70;1.00
7784;DHT22;19359;51.402;6.778;2024-02-28T09:30:41;5.40;1.00
7784;DHT22;19359;51.402;6.778;2024-02-28T09:33:09;5.10;99.90
7784;DHT22;19359;51.402;6.778;2024-02-28T09:35:36;5.00;1.00
7784;DHT22;19359;51.402;6.778;2024-02-28T09:38:03;5.00;39.30
7784;DHT22;19359;51.402;6.778;2024-02-28T09:40:30;5.00;44.60
7784;DHT22;19359;51.402;6.778;2024-02-28T09:43:01;5.10;23.50
7784;DHT22;19359;51.402;6.778;2024-02-28T09:45:29;5.20;20.80
7784;DHT22;19359;51.402;6.778;2024-02-28T09:47:58;5.20;1.00
7784;DHT22;19359;51.402;6.778;2024-02-28T09:50:27;5.20;1.00
7784;DHT22;19359;51.402;6.778;2024-02-28T09:52:54;5.10;1.00
7784;DHT22;19359;51.402;6.778;2024-02-28T09:55:21;5.00;1.00
7784;DHT22;19359;51.402;6.778;2024-02-28T09:57:48;4.90;1.00
7784;DHT22;19359;51.402;6.778;2024-02-28T10:00:19;5.10;1.00
7784;DHT22;19359;51.402;6.778;2024-02-28T10:02:47;5.10;1.00
7784;DHT22;19359;51.402;6.778;2024-02-28T10:05:15;5.20;1.00
7784;DHT22;19359;51.402;6.778;2024-02-28T10:07:45;5.20;1.00
7784;DHT22;19359;51.402;6.778;2024-02-28T10:10:12;5.30;1.00
7784;DHT22;19359;51.402;6.778;2024-02-28T10:12:41;5.40;99.90
7784;DHT22;19359;51.402;6.778;2024-02-28T10:15:09;5.40;53.80
7784;DHT22;19359;51.402;6.778;2024-02-28T10:17:36;5.40;99.90
7784;DHT22;19359;51.402;6.778;2024-02-28T10:20:04;5.30;99.90
7784;DHT22;19359;51.402;6.778;2024-02-28T10:22:34;5.30;99.90
7784;DHT22;19359;51.402;6.778;2024-02-28T10:25:03;5.40;99.90
7784;DHT22;19359;51.402;6.778;2024-02-28T10:27:32;5.60;99.90
7784;DHT22;19359;51.402;6.778;2024-02-28T10:29:59;5.50;99.90
7784;DHT22;19359;51.402;6.778;2024-02-28T10:32:27;5.60;42.10
7784;DHT22;19359;51.402;6.778;2024-02-28T10:34:54;5.60;49.00
7784;DHT22;19359;51.402;6.778;2024-02-28T10:37:21;5.60;43.80
7784;DHT22;19359;51.402;6.778;2024-02-28T10:39:49;5.60;53.80
7784;DHT22;19359;51.402;6.778;2024-02-28T10:42:21;5.70;23.30
7784;DHT22;19359;51.402;6.778;2024-02-28T10:44:50;5.80;1.00
7784;DHT22;19359;51.402;6.778;2024-02-28T10:47:17;5.50;1.00
7784;DHT22;19359;51.402;6.778;2024-02-28T10:49:44;5.70;1.00
7784;DHT22;19359;51.402;6.778;2024-02-28T10:52:12;5.70;1.00
7784;DHT22;19359;51.402;6.778;2024-02-28T10:54:40;5.90;1.00
7784;DHT22;19359;51.402;6.778;2024-02-28T10:57:10;6.00;1.00
7784;DHT22;19359;51.402;6.778;2024-02-28T10:59:40;6.20;1.00
7784;DHT22;19359;51.402;6.778;2024-02-28T11:02:09;6.20;1.00
7784;DHT22;19359;51.402;6.778;2024-02-28T11:04:36;6.50;1.00
7784;DHT22;19359;51.402;6.778;2024-02-28T11:07:03;6.40;1.00
7784;DHT22;19359;51.402;6.778;2024-02-28T11:09:30;6.40;1.00
7784;DHT22;19359;51.402;6.778;2024-02-28T11:11:58;6.50;1.00
7784;DHT22;19359;51.402;6.778;2024-02-28T11:14:24;6.70;1.00
7784;DHT22;19359;51.402;6.778;2024-02-28T11:17:04;6.70;1.00
7784;DHT22;19359;51.402;6.778;2024-02-28T11:19:32;6.90;1.00
7784;DHT22;19359;51.402;6.778;2024-02-28T11:22:00;6.90;1.00
7784;DHT22;19359;51.402;6.778;2024-02-28T11:24:30;7.00;1.00
7784;DHT22;19359;51.402;6.778;2024-02-28T11:26:57;7.00;1.00
7784;DHT22;19359;51.402;6.778;2024-02-28T11:29:24;6.90;1.00
7784;DHT22;19359;51.402;6.778;2024-02-28T11:31:52;6.90;1.00
7784;DHT22;19359;51.402;6.778;2024-02-28T11:34:21;6.90;1.00
7784;DHT22;19359;51.402;6.778;2024-02-28T11:36:48;7.10;1.00
7784;DHT22;19359;51.402;6.778;2024-02-28T11:39:15;7.20;1.00
7784;DHT22;19359;51.402;6.778;2024-02-28T11:41:42;7.30;1.00
7784;DHT22;19359;51.402;6.778;2024-02-28T11:44:12;7.60;1.00
7784;DHT22;19359;51.402;6.778;2024-02-28T11:46:43;7.60;1.00
7784;DHT22;19359;51.402;6.778;2024-02-28T11:49:09;7.50;1.00
7784;DHT22;19359;51.402;6.778;2024-02-28T11:51:40;7.40;1.00
7784;DHT22;19359;51.402;6.778;2024-02-28T11:54:07;7.40;1.00
7784;DHT22;19359;51.402;6.778;2024-02-28T11:56:34;7.40;1.00
7784;DHT22;19359;51.402;6.778;2024-02-28T11:59:01;7.50;1.00
7784;DHT22;19359;51.402;6.778;2024-02-28T12:01:36;7.60;1.00
7784;DHT22;19359;51.402;6.778;2024-02-28T12:04:03;8.00;1.00
7784;DHT22;19359;51.402;6.778;2024-02-28T12:06:31;8.00;1.00
7784;DHT22;19359;51.402;6.778;2024-02-28T12:08:59;8.10;1.00
7784;DHT22;19359;51.402;6.778;2024-02-28T12:11:26;8.00;1.00
7784;DHT22;19359;51.402;6.778;2024-02-28T12:13:55;8.00;1.00
7784;DHT22;19359;51.402;6.778;2024-02-28T12:16:23;8.20;1.00
7784;DHT22;19359;51.402;6.778;2024-02-28T12:18:50;8.30;1.00
7784;DHT22;19359;51.402;6.778;2024-02-28T12:21:17;8.30;1.00
7784;DHT22;19359;51.402;6.778;2024-02-28T12:23:45;8.40;1.00
7784;DHT22;19359;51.402;6.778;2024-02-28T12:26:16;8.40;1.00
7784;DHT22;19359;51.402;6.778;2024-02-28T12:28:42;8.50;1.00
7784;DHT22;19359;51.402;6.778;2024-02-28T12:31:09;8.50;1.00
7784;DHT22;19359;51.402;6.778;2024-02-28T12:33:37;8.70;1.00
7784;DHT22;19359;51.402;6.778;2024-02-28T12:36:04;8.80;1.00
7784;DHT22;19359;51.402;6.778;2024-02-28T12:38:31;8.90;1.00
7784;DHT22;19359;51.402;6.778;2024-02-28T12:40:58;9.10;1.00
7784;DHT22;19359;51.402;6.778;2024-02-28T12:43:26;9.10;1.00
7784;DHT22;19359;51.402;6.778;2024-02-28T12:45:52;9.20;1.00
7784;DHT22;19359;51.402;6.778;2024-02-28T12:48:19;9.30;1.00
7784;DHT22;19359;51.402;6.778;2024-02-28T12:50:47;9.40;1.00
7784;DHT22;19359;51.402;6.778;2024-02-28T12:53:14;9.50;1.00
7784;DHT22;19359;51.402;6.778;2024-02-28T12:55:40;9.50;1.00
7784;DHT22;19359;51.402;6.778;2024-02-28T12:58:08;9.50;1.00
7784;DHT22;19359;51.402;6.778;2024-02-28T13:00:36;9.80;1.00
7784;DHT22;19359;51.402;6.778;2024-02-28T13:03:03;9.90;1.00
7784;DHT22;19359;51.402;6.778;2024-02-28T13:05:31;10.10;1.00
7784;DHT22;19359;51.402;6.778;2024-02-28T13:10:25;10.30;1.00
7784;DHT22;19359;51.402;6.778;2024-02-28T13:12:52;10.40;1.00
7784;DHT22;19359;51.402;6.778;2024-02-28T13:15:19;10.30;1.00
7784;DHT22;19359;51.402;6.778;2024-02-28T13:17:47;10.30;1.00
7784;DHT22;19359;51.402;6.778;2024-02-28T13:20:15;10.50;1.00
7784;DHT22;19359;51.402;6.778;2024-02-28T13:22:42;10.40;1.00
7784;DHT22;19359;51.402;6.778;2024-02-28T13:25:09;10.60;1.00
7784;DHT22;19359;51.402;6.778;2024-02-28T13:27:36;10.60;1.00
7784;DHT22;19359;51.402;6.778;2024-02-28T13:30:04;10.70;1.00
7784;DHT22;19359;51.402;6.778;2024-02-28T13:32:31;10.60;1.00
7784;DHT22;19359;51.402;6.778;2024-02-28T13:34:59;10.70;1.00
7784;DHT22;19359;51.402;6.778;2024-02-28T13:37:26;10.80;1.00
7784;DHT22;19359;51.402;6.778;2024-02-28T13:42:21;10.90;1.00
7784;DHT22;19359;51.402;6.778;2024-02-28T13:47:17;10.90;1.00
7784;DHT22;19359;51.402;6.778;2024-02-28T13:49:43;11.00;1.00
7784;DHT22;19359;51.402;6.778;2024-02-28T13:52:11;11.10;1.00
7784;DHT22;19359;51.402;6.778;2024-02-28T13:54:38;11.10;1.00
7784;DHT22;19359;51.402;6.778;2024-02-28T13:57:05;10.80;1.00
7784;DHT22;19359;51.402;6.778;2024-02-28T13:59:32;10.80;1.00
7784;DHT22;19359;51.402;6.778;2024-02-28T14:01:59;10.50;1.00
7784;DHT22;19359;51.402;6.778;2024-02-28T14:04:26;10.50;1.00
7784;DHT22;19359;51.402;6.778;2024-02-28T14:06:53;10.40;1.00
7784;DHT22;19359;51.402;6.778;2024-02-28T14:09:21;10.60;1.00
7784;DHT22;19359;51.402;6.778;2024-02-28T14:11:48;10.60;1.00
7784;DHT22;19359;51.402;6.778;2024-02-28T14:14:15;10.50;1.00
7784;DHT22;19359;51.402;6.778;2024-02-28T14:16:42;10.60;1.00
7784;DHT22;19359;51.402;6.778;2024-02-28T14:19:09;10.60;1.00
7784;DHT22;19359;51.402;6.778;2024-02-28T14:21:35;10.60;1.00
7784;DHT22;19359;51.402;6.778;2024-02-28T14:24:02;10.70;1.00
7784;DHT22;19359;51.402;6.778;2024-02-28T14:26:30;10.70;1.00
7784;DHT22;19359;51.402;6.778;2024-02-28T14:28:57;10.80;1.00
7784;DHT22;19359;51.402;6.778;2024-02-28T14:31:24;10.70;1.00
7784;DHT22;19359;51.402;6.778;2024-02-28T14:33:52;10.80;1.00
7784;DHT22;19359;51.402;6.778;2024-02-28T14:36:20;10.70;1.00
7784;DHT22;19359;51.402;6.778;2024-02-28T14:38:47;10.50;1.00
7784;DHT22;19359;51.402;6.778;2024-02-28T14:41:13;10.50;1.00
7784;DHT22;19359;51.402;6.778;2024-02-28T14:43:42;10.60;1.00
7784;DHT22;19359;51.402;6.778;2024-02-28T14:46:08;10.70;1.00
7784;DHT22;19359;51.402;6.778;2024-02-28T14:48:36;10.80;1.00
7784;DHT22;19359;51.402;6.778;2024-02-28T14:53:31;10.90;1.00
7784;DHT22;19359;51.402;6.778;2024-02-28T14:55:58;11.00;1.00
7784;DHT22;19359;51.402;6.778;2024-02-28T14:58:25;11.00;1.00
7784;DHT22;19359;51.402;6.778;2024-02-28T15:00:53;10.90;1.00
7784;DHT22;19359;51.402;6.778;2024-02-28T15:03:23;10.80;1.00
7784;DHT22;19359;51.402;6.778;2024-02-28T15:05:51;10.70;1.00
7784;DHT22;19359;51.402;6.778;2024-02-28T15:08:17;10.60;1.00
7784;DHT22;19359;51.402;6.778;2024-02-28T15:10:44;10.60;1.00
7784;DHT22;19359;51.402;6.778;2024-02-28T15:13:11;10.50;1.00
7784;DHT22;19359;51.402;6.778;2024-02-28T15:15:37;10.60;1.00
7784;DHT22;19359;51.402;6.778;2024-02-28T15:18:06;10.60;1.00
7784;DHT22;19359;51.402;6.778;2024-02-28T15:20:33;10.40;1.00
7784;DHT22;19359;51.402;6.778;2024-02-28T15:22:59;10.40;1.00
7784;DHT22;19359;51.402;6.778;2024-02-28T15:25:26;10.20;1.00
7784;DHT22;19359;51.402;6.778;2024-02-28T15:27:53;10.20;1.00
7784;DHT22;19359;51.402;6.778;2024-02-28T15:30:20;10.00;1.00
7784;DHT22;19359;51.402;6.778;2024-02-28T15:32:47;9.90;1.00
7784;DHT22;19359;51.402;6.778;2024-02-28T15:35:15;9.80;1.00
7784;DHT22;19359;51.402;6.778;2024-02-28T15:37:42;9.70;1.00
7784;DHT22;19359;51.402;6.778;2024-02-28T15:40:09;9.70;1.00
7784;DHT22;19359;51.402;6.778;2024-02-28T15:42:36;9.60;1.00
7784;DHT22;19359;51.402;6.778;2024-02-28T15:45:04;9.60;1.00
7784;DHT22;19359;51.402;6.778;2024-02-28T15:47:31;9.60;1.00
7784;DHT22;19359;51.402;6.778;2024-02-28T15:49:58;9.50;1.00
7784;DHT22;19359;51.402;6.778;2024-02-28T15:52:26;9.50;1.00
7784;DHT22;19359;51.402;6.778;2024-02-28T15:54:53;9.50;1.00
7784;DHT22;19359;51.402;6.778;2024-02-28T15:57:20;9.50;1.00
7784;DHT22;19359;51.402;6.778;2024-02-28T15:59:47;9.40;1.00
7784;DHT22;19359;51.402;6.778;2024-02-28T16:02:13;9.40;1.00
7784;DHT22;19359;51.402;6.778;2024-02-28T16:04:40;9.40;1.00
7784;DHT22;19359;51.402;6.778;2024-02-28T16:07:08;9.30;1.00
7784;DHT22;19359;51.402;6.778;2024-02-28T16:09:37;9.30;1.00
7784;DHT22;19359;51.402;6.778;2024-02-28T16:12:07;9.40;1.00
7784;DHT22;19359;51.402;6.778;2024-02-28T16:14:34;9.30;1.00
7784;DHT22;19359;51.402;6.778;2024-02-28T16:17:01;9.30;1.00
7784;DHT22;19359;51.402;6.778;2024-02-28T16:19:28;9.20;1.00
7784;DHT22;19359;51.402;6.778;2024-02-28T16:21:55;9.20;1.00
7784;DHT22;19359;51.402;6.778;2024-02-28T16:24:22;9.20;1.00
7784;DHT22;19359;51.402;6.778;2024-02-28T16:26:50;9.10;1.00